Mascot, Virginia
Current Conditions -  °F | °C
As of 6:55 AM on Thursday 27 Nov 2014 (Local Time) from KFYJ Reporting Station
Overcast Overcast  
Wind Chill: 40°   Ceiling: 500
Heat Index: 40°   Visibility: 7mi
Dew Point: 38°   Wind: 0mph
Humidity: 93%   Direction: NA
Pressure: 30.06"   Gusts: NA
Location:  37.63°N, 76.71°W
Report Text: KFYJ 271155Z AUTO 00000KT 7SM OVC005 05/04 A3006 RMK AO2 70090 T00450035 10049 20023
Loading
Personal Weather Stations






























Interactive Weather Map New forecast layout! Learn more

10-Day Weather Forecast

Advertisements
Track Severe Weather on mobile